National Oceanic Atmosphere Administration National Weather Service Headquarters National Weather Service Headquarters
NOAA logo WFO Anchorage Scalable transition graphic NWS logo
Transition from title bar to navgation bar   Aviation Weather 15 AKST 
blankspace Home   |   Mobile   |   Social Media   |   Mesonet   |   Surface Map   |   Radar   |   Submit Storm Reports   |   News =00 GMT 

LocalForecast by City, St or Zip Code

spacer

Forecasts/Products
  Public
  Forecast Discussion
    - With Glossary
  Aviation
  Marine
  Hydrology(RFC)
  Rivers & Lakes AHPS
  Ice Desk
  TV Weather
  Fire Weather
  Avalanche
  Travel 511
  Graphical
  xml logo RSS Feeds
  Marine FTPMail

spacer

Data
  Mesonet
  Model Graphics
  Local Model
  Observations
  Marine Obs
  Satellite/Radar
  Vent Factor
  Soaring Index
  Weather Links

spacer

Climate
  PAFC Climate
  Interactive Climate
  PAFC Records
  Local
  National
  More

spacer

Outreach
  About Us
  Community Outreach
  Kids' Page
  Tour/Speaker Request
  Weather Classroom
  Social Media

spacer

Reports
  COOP Observers
  Local Storm Reports
  Spotter Page
  Submit a Storm Report

spacer

Miscellaneous
  Archived Alaska Weather Stories
  Student Career Opportunities
  Research Papers

spacer

Print Friendly/
Low Bandwidth

  Public Forecasts
  Marine Forecasts

spacer

Contact Us
  mailto pafcweb

spacer

Facebook Follow the National Weather Service in Alaska on Twitter
USA.gov is the U.S. government's official web portal to all federal, state and local government web resources and services.


 ICAO ID:   AAWU Graphics

Internet access to TAFs and METAR observations is for planning purposes only. We can not guarantee the timeliness of internet products. Before flying please get a formal pilot briefing (1-800-992-7433) and ALWAYS file a Flight Plan!Pilot briefings are provided to licensed aircraft pilots, ONLY! Others may not use the above number to obtain weather information.

Check out the Key to TAFs and METARs for help with decoding the information.

A 12 hour summary of TAFs can be found here.

PAFA TAF
PAFA 252339Z 2600/2706  00000KT 5SM -SN BKN025 OVC040
      TEMPO 2600/2601 2SM -SN
     FM260900 01002KT P6SM VCSH SCT025 BKN040
     FM261500 02002KT P6SM FEW025 SCT050=


METAR PAFA 252353Z 03004KT 3SM -SN BKN028 OVC036 M09/M12 A3026 RMK AO2
     SLP259 T10891117 11083 21100 52016=
METAR PAFA 252353Z 03004KT 3SM -SN BKN028 OVC036 M09/M12 A3026=
PAFA 252330Z 04003KT 3SM -SN BKN025 OVC032 M09/M12 A3025 RMK AO2
     T10891117=
PAFA 252330Z 04003KT 3SM -SN BKN025 OVC032 M09/M12 A3025=
SPECI PAFA 252321Z 02003KT 2 1/2SM -SN BKN025 OVC032 M09/M12 A3025 RMK
     AO2 T10891117=
PAFA 252321Z 02003KT 2 1/2SM -SN BKN025 OVC032 M09/M12 A3025=
PAFA 252316Z 35003KT 3SM -SN BKN025 OVC032 M09/M12 A3025 RMK AO2
     T10891117=
PAFA 252316Z 35003KT 3SM -SN BKN025 OVC032 M09/M12 A3025=
METAR PAFA 252253Z 00000KT 6SM -SN SCT025 BKN038 OVC046 M09/M12
 A3024 RMK AO2 SLP253 T10891117=
METAR PAFA 252253Z 00000KT 6SM -SN SCT025 BKN038 OVC046 M09/M12
     A3024=
SPECI PAFA 252246Z 00000KT 6SM -SN SCT025 OVC042 M09/M12 A3024 RMK AO2
     T10891117=
PAFA 252246Z 00000KT 6SM -SN SCT025 OVC042 M09/M12 A3024=
METAR PAFA 252153Z 00000KT 4SM -SN BKN025 OVC042 M09/M12 A3023 RMK AO2
     SLP249 T10891122=
METAR PAFA 252153Z 00000KT 4SM -SN BKN025 OVC042 M09/M12 A3023=
METAR PAFA 252053Z 00000KT 4SM -SN BKN028 OVC048 M09/M12 A3021 RMK AO2
     SLP243 T10941122 51016=
METAR PAFA 252053Z 00000KT 4SM -SN BKN028 OVC048 M09/M12 A3021=
PAFA 252036Z 06003KT 4SM -SN BKN027 OVC044 M09/M12 A3020 RMK AO2
     T10941122=
PAFA 252036Z 06003KT 4SM -SN BKN027 OVC044 M09/M12 A3020=


National Weather Service
Anchorage Forecast Office
6930 Sand Lake Road
Anchorage, Ak 99502
(907) 266-5105 M-F/7-5pm
About Us
Career Opportunities
Glossary
Disclaimer
Privacy Policy
Credits
Alaska Weather Information Line:
1-800-472-0391